sensor_id;sensor_type;location;lat;lon;timestamp;P1;durP1;ratioP1;P2;durP2;ratioP2
23678;SDS011;12016;51.668;6.874;2023-01-25T00:02:32;31.63;;;26.53;;
23678;SDS011;12016;51.668;6.874;2023-01-25T00:08:34;31.58;;;27.02;;
23678;SDS011;12016;51.668;6.874;2023-01-25T00:14:36;30.65;;;26.20;;
23678;SDS011;12016;51.668;6.874;2023-01-25T00:20:38;31.60;;;26.90;;
23678;SDS011;12016;51.668;6.874;2023-01-25T00:26:40;33.72;;;28.50;;
23678;SDS011;12016;51.668;6.874;2023-01-25T00:33:23;35.05;;;28.70;;
23678;SDS011;12016;51.668;6.874;2023-01-25T00:39:30;33.05;;;27.83;;
23678;SDS011;12016;51.668;6.874;2023-01-25T00:45:33;31.63;;;27.23;;
23678;SDS011;12016;51.668;6.874;2023-01-25T00:51:35;28.50;;;25.25;;
23678;SDS011;12016;51.668;6.874;2023-01-25T00:57:37;31.50;;;27.17;;
23678;SDS011;12016;51.668;6.874;2023-01-25T01:03:39;31.45;;;27.13;;
23678;SDS011;12016;51.668;6.874;2023-01-25T01:09:41;30.75;;;26.42;;
23678;SDS011;12016;51.668;6.874;2023-01-25T01:15:43;32.80;;;27.47;;
23678;SDS011;12016;51.668;6.874;2023-01-25T01:21:47;35.88;;;29.67;;
23678;SDS011;12016;51.668;6.874;2023-01-25T01:27:49;32.77;;;28.53;;
23678;SDS011;12016;51.668;6.874;2023-01-25T01:33:52;34.67;;;29.50;;
23678;SDS011;12016;51.668;6.874;2023-01-25T01:39:55;36.03;;;29.87;;
23678;SDS011;12016;51.668;6.874;2023-01-25T01:45:59;37.38;;;30.45;;
23678;SDS011;12016;51.668;6.874;2023-01-25T01:52:11;37.78;;;30.90;;
23678;SDS011;12016;51.668;6.874;2023-01-25T01:58:17;39.72;;;32.45;;
23678;SDS011;12016;51.668;6.874;2023-01-25T02:04:20;40.63;;;33.75;;
23678;SDS011;12016;51.668;6.874;2023-01-25T02:10:25;48.22;;;38.25;;
23678;SDS011;12016;51.668;6.874;2023-01-25T02:16:31;51.13;;;39.90;;
23678;SDS011;12016;51.668;6.874;2023-01-25T02:22:46;52.22;;;39.60;;
23678;SDS011;12016;51.668;6.874;2023-01-25T02:28:56;45.40;;;35.60;;
23678;SDS011;12016;51.668;6.874;2023-01-25T02:35:03;44.42;;;35.40;;
23678;SDS011;12016;51.668;6.874;2023-01-25T02:41:10;46.30;;;35.60;;
23678;SDS011;12016;51.668;6.874;2023-01-25T02:47:17;46.37;;;36.20;;
23678;SDS011;12016;51.668;6.874;2023-01-25T02:53:20;50.70;;;38.55;;
23678;SDS011;12016;51.668;6.874;2023-01-25T02:59:23;51.30;;;39.87;;
23678;SDS011;12016;51.668;6.874;2023-01-25T03:05:28;51.78;;;41.08;;
23678;SDS011;12016;51.668;6.874;2023-01-25T03:11:32;53.20;;;40.80;;
23678;SDS011;12016;51.668;6.874;2023-01-25T03:17:34;54.35;;;41.97;;
23678;SDS011;12016;51.668;6.874;2023-01-25T03:23:36;52.93;;;40.93;;
23678;SDS011;12016;51.668;6.874;2023-01-25T03:29:40;53.93;;;41.80;;
23678;SDS011;12016;51.668;6.874;2023-01-25T03:35:50;54.95;;;41.50;;
23678;SDS011;12016;51.668;6.874;2023-01-25T03:41:55;54.10;;;41.70;;
23678;SDS011;12016;51.668;6.874;2023-01-25T03:47:58;52.03;;;39.73;;
23678;SDS011;12016;51.668;6.874;2023-01-25T03:53:59;53.33;;;40.47;;
23678;SDS011;12016;51.668;6.874;2023-01-25T04:00:02;49.45;;;40.08;;
23678;SDS011;12016;51.668;6.874;2023-01-25T04:06:15;50.10;;;39.85;;
23678;SDS011;12016;51.668;6.874;2023-01-25T04:12:17;54.88;;;41.97;;
23678;SDS011;12016;51.668;6.874;2023-01-25T04:18:20;45.90;;;36.05;;
23678;SDS011;12016;51.668;6.874;2023-01-25T04:24:22;45.37;;;35.13;;
23678;SDS011;12016;51.668;6.874;2023-01-25T04:30:24;48.60;;;37.70;;
23678;SDS011;12016;51.668;6.874;2023-01-25T04:36:28;47.67;;;36.37;;
23678;SDS011;12016;51.668;6.874;2023-01-25T04:42:31;51.35;;;38.88;;
23678;SDS011;12016;51.668;6.874;2023-01-25T04:48:33;45.63;;;35.43;;
23678;SDS011;12016;51.668;6.874;2023-01-25T04:54:39;45.72;;;34.13;;
23678;SDS011;12016;51.668;6.874;2023-01-25T05:00:41;46.15;;;35.80;;
23678;SDS011;12016;51.668;6.874;2023-01-25T05:06:44;46.60;;;35.60;;
23678;SDS011;12016;51.668;6.874;2023-01-25T05:12:47;47.70;;;35.93;;
23678;SDS011;12016;51.668;6.874;2023-01-25T05:18:48;50.97;;;38.03;;
23678;SDS011;12016;51.668;6.874;2023-01-25T05:24:54;46.40;;;36.27;;
23678;SDS011;12016;51.668;6.874;2023-01-25T05:30:58;46.00;;;36.07;;
23678;SDS011;12016;51.668;6.874;2023-01-25T05:37:08;38.40;;;33.00;;
23678;SDS011;12016;51.668;6.874;2023-01-25T05:43:15;36.97;;;31.08;;
23678;SDS011;12016;51.668;6.874;2023-01-25T05:49:17;34.93;;;29.57;;
23678;SDS011;12016;51.668;6.874;2023-01-25T05:55:20;35.50;;;30.55;;
23678;SDS011;12016;51.668;6.874;2023-01-25T06:01:24;33.65;;;29.13;;
23678;SDS011;12016;51.668;6.874;2023-01-25T06:07:34;33.83;;;29.25;;
23678;SDS011;12016;51.668;6.874;2023-01-25T06:13:37;32.97;;;29.08;;
23678;SDS011;12016;51.668;6.874;2023-01-25T06:19:39;33.05;;;29.45;;
23678;SDS011;12016;51.668;6.874;2023-01-25T06:26:05;32.30;;;28.53;;
23678;SDS011;12016;51.668;6.874;2023-01-25T06:32:09;33.83;;;29.52;;
23678;SDS011;12016;51.668;6.874;2023-01-25T06:38:11;33.40;;;29.33;;
23678;SDS011;12016;51.668;6.874;2023-01-25T06:44:13;32.45;;;28.75;;
23678;SDS011;12016;51.668;6.874;2023-01-25T06:50:15;33.28;;;29.20;;
23678;SDS011;12016;51.668;6.874;2023-01-25T06:56:17;34.17;;;29.50;;
23678;SDS011;12016;51.668;6.874;2023-01-25T07:02:22;35.42;;;31.17;;
23678;SDS011;12016;51.668;6.874;2023-01-25T07:08:26;33.25;;;28.73;;
23678;SDS011;12016;51.668;6.874;2023-01-25T07:14:32;35.13;;;29.83;;
23678;SDS011;12016;51.668;6.874;2023-01-25T07:20:34;33.63;;;29.30;;
23678;SDS011;12016;51.668;6.874;2023-01-25T07:26:36;34.97;;;30.13;;
23678;SDS011;12016;51.668;6.874;2023-01-25T07:32:38;34.67;;;29.65;;
23678;SDS011;12016;51.668;6.874;2023-01-25T07:38:40;35.42;;;30.60;;
23678;SDS011;12016;51.668;6.874;2023-01-25T07:44:42;38.10;;;31.48;;
23678;SDS011;12016;51.668;6.874;2023-01-25T07:50:46;36.53;;;31.27;;
23678;SDS011;12016;51.668;6.874;2023-01-25T07:57:08;37.90;;;31.35;;
23678;SDS011;12016;51.668;6.874;2023-01-25T08:03:10;37.73;;;31.60;;
23678;SDS011;12016;51.668;6.874;2023-01-25T08:09:15;38.27;;;31.43;;
23678;SDS011;12016;51.668;6.874;2023-01-25T08:15:22;37.95;;;31.50;;
23678;SDS011;12016;51.668;6.874;2023-01-25T08:21:24;41.60;;;34.37;;
23678;SDS011;12016;51.668;6.874;2023-01-25T08:27:31;38.90;;;31.67;;
23678;SDS011;12016;51.668;6.874;2023-01-25T08:33:33;39.35;;;32.90;;
23678;SDS011;12016;51.668;6.874;2023-01-25T08:39:35;41.13;;;33.70;;
23678;SDS011;12016;51.668;6.874;2023-01-25T08:45:37;41.90;;;35.00;;
23678;SDS011;12016;51.668;6.874;2023-01-25T08:51:39;40.60;;;34.63;;
23678;SDS011;12016;51.668;6.874;2023-01-25T08:57:40;44.13;;;34.58;;
23678;SDS011;12016;51.668;6.874;2023-01-25T09:03:43;45.17;;;35.95;;
23678;SDS011;12016;51.668;6.874;2023-01-25T09:09:46;43.47;;;35.50;;
23678;SDS011;12016;51.668;6.874;2023-01-25T09:15:48;43.03;;;34.65;;
23678;SDS011;12016;51.668;6.874;2023-01-25T09:21:50;44.47;;;35.13;;
23678;SDS011;12016;51.668;6.874;2023-01-25T09:27:52;41.13;;;34.10;;
23678;SDS011;12016;51.668;6.874;2023-01-25T09:33:54;44.13;;;35.35;;
23678;SDS011;12016;51.668;6.874;2023-01-25T09:39:58;47.75;;;37.50;;
23678;SDS011;12016;51.668;6.874;2023-01-25T09:46:00;46.97;;;37.08;;
23678;SDS011;12016;51.668;6.874;2023-01-25T09:59:09;44.45;;;36.53;;
23678;SDS011;12016;51.668;6.874;2023-01-25T10:05:24;42.65;;;35.30;;
23678;SDS011;12016;51.668;6.874;2023-01-25T10:11:30;47.97;;;37.50;;
23678;SDS011;12016;51.668;6.874;2023-01-25T10:17:34;48.58;;;38.13;;
23678;SDS011;12016;51.668;6.874;2023-01-25T10:23:52;49.75;;;39.20;;
23678;SDS011;12016;51.668;6.874;2023-01-25T10:30:25;47.50;;;37.50;;
23678;SDS011;12016;51.668;6.874;2023-01-25T10:36:31;49.88;;;38.45;;
23678;SDS011;12016;51.668;6.874;2023-01-25T10:42:36;51.30;;;40.80;;
23678;SDS011;12016;51.668;6.874;2023-01-25T10:48:41;50.63;;;38.83;;
23678;SDS011;12016;51.668;6.874;2023-01-25T10:54:43;58.17;;;43.37;;
23678;SDS011;12016;51.668;6.874;2023-01-25T11:00:49;53.40;;;41.13;;
23678;SDS011;12016;51.668;6.874;2023-01-25T11:06:52;50.58;;;40.40;;
23678;SDS011;12016;51.668;6.874;2023-01-25T11:25:35;51.65;;;40.75;;
23678;SDS011;12016;51.668;6.874;2023-01-25T11:31:37;54.63;;;41.33;;
23678;SDS011;12016;51.668;6.874;2023-01-25T11:38:01;55.05;;;42.75;;
23678;SDS011;12016;51.668;6.874;2023-01-25T11:44:30;53.03;;;41.28;;
23678;SDS011;12016;51.668;6.874;2023-01-25T11:50:46;52.42;;;40.10;;
23678;SDS011;12016;51.668;6.874;2023-01-25T11:56:56;50.07;;;40.20;;
23678;SDS011;12016;51.668;6.874;2023-01-25T12:03:14;52.63;;;40.33;;
23678;SDS011;12016;51.668;6.874;2023-01-25T12:34:02;51.08;;;40.45;;
23678;SDS011;12016;51.668;6.874;2023-01-25T12:40:10;50.08;;;39.38;;
23678;SDS011;12016;51.668;6.874;2023-01-25T12:46:27;53.07;;;39.50;;
23678;SDS011;12016;51.668;6.874;2023-01-25T12:52:40;53.47;;;40.23;;
23678;SDS011;12016;51.668;6.874;2023-01-25T12:59:07;54.30;;;40.87;;
23678;SDS011;12016;51.668;6.874;2023-01-25T13:11:38;57.72;;;42.28;;
23678;SDS011;12016;51.668;6.874;2023-01-25T13:17:44;56.50;;;41.67;;
23678;SDS011;12016;51.668;6.874;2023-01-25T13:23:46;58.67;;;41.90;;
23678;SDS011;12016;51.668;6.874;2023-01-25T13:36:59;60.53;;;42.40;;
23678;SDS011;12016;51.668;6.874;2023-01-25T13:42:41;61.80;;;43.40;;
23678;SDS011;12016;51.668;6.874;2023-01-25T13:49:04;60.20;;;43.00;;
23678;SDS011;12016;51.668;6.874;2023-01-25T13:55:15;60.08;;;42.58;;
23678;SDS011;12016;51.668;6.874;2023-01-25T14:01:19;60.92;;;42.97;;
23678;SDS011;12016;51.668;6.874;2023-01-25T14:07:27;65.50;;;46.30;;
23678;SDS011;12016;51.668;6.874;2023-01-25T14:13:33;71.53;;;49.73;;
23678;SDS011;12016;51.668;6.874;2023-01-25T14:19:35;73.53;;;52.17;;
23678;SDS011;12016;51.668;6.874;2023-01-25T14:25:40;74.38;;;52.20;;
23678;SDS011;12016;51.668;6.874;2023-01-25T14:31:42;72.77;;;50.50;;
23678;SDS011;12016;51.668;6.874;2023-01-25T14:37:44;76.28;;;51.72;;
23678;SDS011;12016;51.668;6.874;2023-01-25T14:43:49;72.20;;;51.83;;
23678;SDS011;12016;51.668;6.874;2023-01-25T14:49:53;71.43;;;51.38;;
23678;SDS011;12016;51.668;6.874;2023-01-25T14:55:55;68.25;;;48.75;;
23678;SDS011;12016;51.668;6.874;2023-01-25T15:01:58;68.43;;;48.87;;
23678;SDS011;12016;51.668;6.874;2023-01-25T15:14:18;66.13;;;47.90;;
23678;SDS011;12016;51.668;6.874;2023-01-25T15:20:38;72.47;;;50.70;;
23678;SDS011;12016;51.668;6.874;2023-01-25T15:26:41;70.82;;;50.13;;
23678;SDS011;12016;51.668;6.874;2023-01-25T15:32:44;68.00;;;48.90;;
23678;SDS011;12016;51.668;6.874;2023-01-25T15:38:46;67.90;;;48.07;;
23678;SDS011;12016;51.668;6.874;2023-01-25T15:44:48;65.47;;;46.83;;
23678;SDS011;12016;51.668;6.874;2023-01-25T15:50:50;65.60;;;46.47;;
23678;SDS011;12016;51.668;6.874;2023-01-25T15:56:55;68.53;;;49.27;;
23678;SDS011;12016;51.668;6.874;2023-01-25T16:02:59;67.03;;;46.47;;
23678;SDS011;12016;51.668;6.874;2023-01-25T16:09:02;66.20;;;47.90;;
23678;SDS011;12016;51.668;6.874;2023-01-25T16:15:13;59.85;;;44.50;;
23678;SDS011;12016;51.668;6.874;2023-01-25T16:21:15;58.40;;;43.15;;
23678;SDS011;12016;51.668;6.874;2023-01-25T16:27:17;57.80;;;42.77;;
23678;SDS011;12016;51.668;6.874;2023-01-25T16:33:25;59.42;;;44.33;;
23678;SDS011;12016;51.668;6.874;2023-01-25T16:39:27;60.27;;;43.97;;
23678;SDS011;12016;51.668;6.874;2023-01-25T16:45:29;61.70;;;43.90;;
23678;SDS011;12016;51.668;6.874;2023-01-25T16:51:32;66.30;;;45.17;;
23678;SDS011;12016;51.668;6.874;2023-01-25T16:57:33;67.68;;;46.42;;
23678;SDS011;12016;51.668;6.874;2023-01-25T17:03:35;65.28;;;47.10;;
23678;SDS011;12016;51.668;6.874;2023-01-25T17:09:37;68.37;;;47.00;;
23678;SDS011;12016;51.668;6.874;2023-01-25T17:15:39;66.03;;;46.72;;
23678;SDS011;12016;51.668;6.874;2023-01-25T17:21:41;64.43;;;44.55;;
23678;SDS011;12016;51.668;6.874;2023-01-25T17:27:43;63.78;;;43.95;;
23678;SDS011;12016;51.668;6.874;2023-01-25T17:33:47;64.97;;;44.67;;
23678;SDS011;12016;51.668;6.874;2023-01-25T17:39:49;65.95;;;45.47;;
23678;SDS011;12016;51.668;6.874;2023-01-25T17:45:51;64.53;;;44.03;;
23678;SDS011;12016;51.668;6.874;2023-01-25T17:51:53;64.88;;;45.00;;
23678;SDS011;12016;51.668;6.874;2023-01-25T17:57:57;66.50;;;47.10;;
23678;SDS011;12016;51.668;6.874;2023-01-25T18:03:59;67.15;;;46.28;;
23678;SDS011;12016;51.668;6.874;2023-01-25T18:10:01;68.25;;;46.53;;
23678;SDS011;12016;51.668;6.874;2023-01-25T18:16:08;68.95;;;48.30;;
23678;SDS011;12016;51.668;6.874;2023-01-25T18:22:10;67.57;;;46.90;;
23678;SDS011;12016;51.668;6.874;2023-01-25T18:28:14;73.00;;;50.72;;
23678;SDS011;12016;51.668;6.874;2023-01-25T18:34:16;74.03;;;49.30;;
23678;SDS011;12016;51.668;6.874;2023-01-25T18:40:18;73.55;;;49.20;;
23678;SDS011;12016;51.668;6.874;2023-01-25T18:46:20;71.28;;;46.83;;
23678;SDS011;12016;51.668;6.874;2023-01-25T18:52:22;72.05;;;46.75;;
23678;SDS011;12016;51.668;6.874;2023-01-25T18:58:24;74.00;;;48.37;;
23678;SDS011;12016;51.668;6.874;2023-01-25T19:04:27;73.10;;;49.25;;
23678;SDS011;12016;51.668;6.874;2023-01-25T19:10:28;72.47;;;48.03;;
23678;SDS011;12016;51.668;6.874;2023-01-25T19:16:30;72.27;;;48.10;;
23678;SDS011;12016;51.668;6.874;2023-01-25T19:22:32;74.95;;;49.05;;
23678;SDS011;12016;51.668;6.874;2023-01-25T19:28:34;74.65;;;47.28;;
23678;SDS011;12016;51.668;6.874;2023-01-25T19:34:36;73.30;;;46.85;;
23678;SDS011;12016;51.668;6.874;2023-01-25T19:40:39;74.40;;;47.30;;
23678;SDS011;12016;51.668;6.874;2023-01-25T19:46:41;74.28;;;48.28;;
23678;SDS011;12016;51.668;6.874;2023-01-25T19:52:43;77.97;;;45.97;;
23678;SDS011;12016;51.668;6.874;2023-01-25T19:58:45;78.28;;;49.53;;
23678;SDS011;12016;51.668;6.874;2023-01-25T20:04:49;79.53;;;49.70;;
23678;SDS011;12016;51.668;6.874;2023-01-25T20:10:55;81.82;;;48.13;;
23678;SDS011;12016;51.668;6.874;2023-01-25T20:16:58;81.80;;;48.97;;
23678;SDS011;12016;51.668;6.874;2023-01-25T20:23:00;82.30;;;47.00;;
23678;SDS011;12016;51.668;6.874;2023-01-25T20:29:03;74.47;;;44.25;;
23678;SDS011;12016;51.668;6.874;2023-01-25T20:35:06;84.68;;;49.08;;
23678;SDS011;12016;51.668;6.874;2023-01-25T20:41:10;85.97;;;49.47;;
23678;SDS011;12016;51.668;6.874;2023-01-25T20:47:17;80.65;;;47.00;;
23678;SDS011;12016;51.668;6.874;2023-01-25T20:53:18;78.93;;;45.67;;
23678;SDS011;12016;51.668;6.874;2023-01-25T20:59:20;82.47;;;46.65;;
23678;SDS011;12016;51.668;6.874;2023-01-25T21:05:22;80.47;;;45.17;;
23678;SDS011;12016;51.668;6.874;2023-01-25T21:11:24;90.60;;;50.35;;
23678;SDS011;12016;51.668;6.874;2023-01-25T21:17:27;90.43;;;49.63;;
23678;SDS011;12016;51.668;6.874;2023-01-25T21:23:29;98.38;;;54.70;;
23678;SDS011;12016;51.668;6.874;2023-01-25T21:29:31;100.45;;;51.85;;
23678;SDS011;12016;51.668;6.874;2023-01-25T21:35:32;93.22;;;51.30;;
23678;SDS011;12016;51.668;6.874;2023-01-25T21:41:34;95.32;;;49.17;;
23678;SDS011;12016;51.668;6.874;2023-01-25T21:47:36;93.20;;;53.15;;
23678;SDS011;12016;51.668;6.874;2023-01-25T21:53:38;90.47;;;49.78;;
23678;SDS011;12016;51.668;6.874;2023-01-25T21:59:39;87.53;;;47.08;;
23678;SDS011;12016;51.668;6.874;2023-01-25T22:05:41;80.70;;;45.53;;
23678;SDS011;12016;51.668;6.874;2023-01-25T22:11:43;81.13;;;46.30;;
23678;SDS011;12016;51.668;6.874;2023-01-25T22:17:48;82.28;;;44.25;;
23678;SDS011;12016;51.668;6.874;2023-01-25T22:23:50;92.03;;;49.10;;
23678;SDS011;12016;51.668;6.874;2023-01-25T22:29:52;79.93;;;45.28;;
23678;SDS011;12016;51.668;6.874;2023-01-25T22:35:54;89.10;;;49.80;;
23678;SDS011;12016;51.668;6.874;2023-01-25T22:41:56;91.75;;;50.30;;
23678;SDS011;12016;51.668;6.874;2023-01-25T22:47:58;89.18;;;47.83;;
23678;SDS011;12016;51.668;6.874;2023-01-25T22:54:00;93.68;;;51.17;;
23678;SDS011;12016;51.668;6.874;2023-01-25T23:00:02;91.57;;;51.10;;
23678;SDS011;12016;51.668;6.874;2023-01-25T23:06:09;88.55;;;49.75;;
23678;SDS011;12016;51.668;6.874;2023-01-25T23:12:13;93.90;;;50.75;;
23678;SDS011;12016;51.668;6.874;2023-01-25T23:18:16;96.88;;;48.40;;
23678;SDS011;12016;51.668;6.874;2023-01-25T23:24:37;101.53;;;52.73;;
23678;SDS011;12016;51.668;6.874;2023-01-25T23:30:38;116.18;;;57.50;;
23678;SDS011;12016;51.668;6.874;2023-01-25T23:36:41;125.88;;;62.45;;
23678;SDS011;12016;51.668;6.874;2023-01-25T23:42:43;132.13;;;62.97;;
23678;SDS011;12016;51.668;6.874;2023-01-25T23:48:45;129.70;;;60.78;;
23678;SDS011;12016;51.668;6.874;2023-01-25T23:54:47;124.15;;;60.35;;
